Karin S — V2BM6 — position and weather

sailwx.info

Track history (hours):
 
Tides and Currents Weather Stations Pressure Air Temp Water Temp Dewpoint Dewpoint Depression Visibility Wind Speed Wind Dir Waves Ship Positions

Karin S

Last reported at 2016-May-04 13:13 UTC. Time now 2016-May-04 13:33 UTC.
Position N 39°26' W 000°19'.

Length 141 m; draft 6.2 m.

Type: Cargo ship. MMSI: 304871000.

Date/timePositionNaut miles runAvg speedWind from/ knotsBaromVisibWave heightAir tempDewpointWater temp
2016-May-04 13:13N 39°26' W 000°19'0 0.0
2016-May-04 12:25N 39°26' W 000°19'0 0.0
2016-May-04 10:19N 39°26' W 000°19'0 0.0
2016-May-04 09:20N 39°26' W 000°19'0 0.0
2016-May-04 08:32N 39°26' W 000°19'0 0.0
2016-May-04 07:32N 39°26' W 000°19'0 0.0
2016-May-04 06:26N 39°26' W 000°19'0 0.0
2016-May-03 20:29N 39°26' W 000°19'0 0.0
2016-May-03 19:32N 39°26' W 000°19'0 0.0
2016-May-03 18:32N 39°26' W 000°19'0 0.0
2016-May-03 17:30N 39°26' W 000°19'0 0.0
2016-May-03 16:32N 39°26' W 000°19'0 0.0
2016-May-03 15:24N 39°26' W 000°19'1 0.7
2016-May-03 14:33N 39°26' W 000°19'6 5.9
2016-May-03 13:32N 39°24' W 000°11'4112.2
2016-May-03 10:10N 38°56' E 000°27'711.6
2016-May-03 09:33N 38°50' E 000°33'2811.8
2016-May-03 07:08N 38°30' E 000°59'712.1
2016-May-03 06:33N 38°25' E 001°05'4911.9
2016-May-03 02:24N 37°50' E 001°49'5112.1
2016-May-02 22:11N 37°14' E 002°35'812.0
2016-May-02 21:32N 37°08' E 002°41'  
2016-Apr-29 09:24N 39°24' W 000°14'4 4.9
2016-Apr-29 08:33N 39°26' W 000°19'0 0.0
2016-Apr-29 06:33N 39°26' W 000°19'0 0.0
2016-Apr-29 05:33N 39°26' W 000°19'0 0.0
2016-Apr-29 04:31N 39°26' W 000°19'0 0.0
2016-Apr-28 20:07N 39°26' W 000°19'0 0.1
2016-Apr-28 13:33N 39°26' W 000°19'6 6.1
2016-Apr-28 12:32N 39°24' W 000°11'12811.7
2016-Apr-28 01:31N 37°53' E 001°45'1111.6
2016-Apr-28 00:33N 37°45' E 001°55'2512.0
2016-Apr-27 22:30N 37°28' E 002°17'1312.7
2016-Apr-27 21:26N 37°18' E 002°29'1112.2
2016-Apr-27 20:33N 37°10' E 002°38'1512.0
2016-Apr-27 19:19N 36°60' E 002°51'911.5
2016-Apr-27 18:33N 36°55' E 003°00'10 9.6
2016-Apr-27 17:33N 36°46' E 003°05'  
Track history (hours):
 
Tides and Currents Weather Stations Pressure Air Temp Water Temp Dewpoint Dewpoint Depression Visibility Wind Speed Wind Dir Waves Ship Positions

Karin S

Last reported at 2016-May-04 13:13 UTC. Time now 2016-May-04 13:33 UTC.
Position N 39°26' W 000°19'.

Length 141 m; draft 6.2 m.

Type: Cargo ship. MMSI: 304871000.

Date/timePositionNaut miles runAvg speedWind from/ knotsBaromVisibWave heightAir tempDewpointWater temp
2016-May-04 13:13N 39°26' W 000°19'0 0.0
2016-May-04 12:25N 39°26' W 000°19'0 0.0
2016-May-04 10:19N 39°26' W 000°19'0 0.0
2016-May-04 09:20N 39°26' W 000°19'0 0.0
2016-May-04 08:32N 39°26' W 000°19'0 0.0
2016-May-04 07:32N 39°26' W 000°19'0 0.0
2016-May-04 06:26N 39°26' W 000°19'0 0.0
2016-May-03 20:29N 39°26' W 000°19'0 0.0
2016-May-03 19:32N 39°26' W 000°19'0 0.0
2016-May-03 18:32N 39°26' W 000°19'0 0.0
2016-May-03 17:30N 39°26' W 000°19'0 0.0
2016-May-03 16:32N 39°26' W 000°19'0 0.0
2016-May-03 15:24N 39°26' W 000°19'1 0.7
2016-May-03 14:33N 39°26' W 000°19'6 5.9
2016-May-03 13:32N 39°24' W 000°11'4112.2
2016-May-03 10:10N 38°56' E 000°27'711.6
2016-May-03 09:33N 38°50' E 000°33'2811.8
2016-May-03 07:08N 38°30' E 000°59'712.1
2016-May-03 06:33N 38°25' E 001°05'4911.9
2016-May-03 02:24N 37°50' E 001°49'5112.1
2016-May-02 22:11N 37°14' E 002°35'812.0
2016-May-02 21:32N 37°08' E 002°41'  
2016-Apr-29 09:24N 39°24' W 000°14'4 4.9
2016-Apr-29 08:33N 39°26' W 000°19'0 0.0
2016-Apr-29 06:33N 39°26' W 000°19'0 0.0
2016-Apr-29 05:33N 39°26' W 000°19'0 0.0
2016-Apr-29 04:31N 39°26' W 000°19'0 0.0
2016-Apr-28 20:07N 39°26' W 000°19'0 0.1
2016-Apr-28 13:33N 39°26' W 000°19'6 6.1
2016-Apr-28 12:32N 39°24' W 000°11'12811.7
2016-Apr-28 01:31N 37°53' E 001°45'1111.6
2016-Apr-28 00:33N 37°45' E 001°55'2512.0
2016-Apr-27 22:30N 37°28' E 002°17'1312.7
2016-Apr-27 21:26N 37°18' E 002°29'1112.2
2016-Apr-27 20:33N 37°10' E 002°38'1512.0
2016-Apr-27 19:19N 36°60' E 002°51'911.5
2016-Apr-27 18:33N 36°55' E 003°00'10 9.6
2016-Apr-27 17:33N 36°46' E 003°05'  

Dump ship's entire track history